createdAt,value
2019-03-19T00:00:16.931Z,100296.16
2019-03-19T00:02:45.553Z,100295.76
2019-03-19T00:05:12.488Z,100300.70
2019-03-19T00:07:38.823Z,100297.19
2019-03-19T00:10:08.036Z,100301.41
2019-03-19T00:12:34.336Z,100318.33
2019-03-19T00:15:00.713Z,100318.59
2019-03-19T00:17:27.052Z,100319.07
2019-03-19T00:19:53.750Z,100317.64
2019-03-19T00:22:20.115Z,100314.27
2019-03-19T00:24:46.487Z,100318.20
2019-03-19T00:27:12.844Z,100325.14
2019-03-19T00:29:39.183Z,100320.97
2019-03-19T00:32:05.520Z,100320.90
2019-03-19T00:34:31.844Z,100327.23
2019-03-19T00:36:58.592Z,100327.73
2019-03-19T00:39:24.916Z,100330.00
2019-03-19T00:41:51.282Z,100332.31
2019-03-19T00:44:18.090Z,100328.88
2019-03-19T00:46:44.833Z,100332.86
2019-03-19T00:49:11.460Z,100331.11
2019-03-19T00:51:38.266Z,100324.28
2019-03-19T00:54:04.577Z,100334.10
2019-03-19T00:56:31.025Z,100336.48
2019-03-19T00:58:57.392Z,100333.89
2019-03-19T01:01:24.072Z,100332.61
2019-03-19T01:03:50.425Z,100338.45
2019-03-19T01:06:17.095Z,100332.32
2019-03-19T01:08:44.173Z,100335.83
2019-03-19T01:11:11.475Z,100341.80
2019-03-19T01:13:38.218Z,100346.75
2019-03-19T01:16:04.624Z,100345.94
2019-03-19T01:18:31.030Z,100341.14
2019-03-19T01:20:57.366Z,100342.23
2019-03-19T01:23:23.720Z,100335.61
2019-03-19T01:25:55.732Z,100336.64
2019-03-19T01:28:18.839Z,100335.34
2019-03-19T01:30:45.310Z,100332.17
2019-03-19T01:33:11.648Z,100335.44
2019-03-19T01:35:38.435Z,100329.27
2019-03-19T01:38:04.764Z,100331.87
2019-03-19T01:40:31.425Z,100336.83
2019-03-19T01:42:57.775Z,100342.19
2019-03-19T01:45:24.122Z,100333.45
2019-03-19T01:47:50.889Z,100338.97
2019-03-19T01:50:17.218Z,100340.23
2019-03-19T01:52:43.631Z,100345.50
2019-03-19T01:55:14.198Z,100342.55
2019-03-19T01:57:40.766Z,100349.93
2019-03-19T02:00:17.267Z,100357.07
2019-03-19T02:02:43.616Z,100359.27
2019-03-19T02:05:10.385Z,100368.82
2019-03-19T02:07:36.686Z,100359.52
2019-03-19T02:10:09.797Z,100363.09
2019-03-19T02:12:36.135Z,100376.72
2019-03-19T02:15:05.967Z,100371.21
2019-03-19T02:17:32.659Z,100370.04
2019-03-19T02:19:59.065Z,100380.34
2019-03-19T02:22:25.786Z,100381.10
2019-03-19T02:24:52.479Z,100388.44
2019-03-19T02:27:19.106Z,100387.64
2019-03-19T02:29:45.427Z,100395.78
2019-03-19T02:32:11.796Z,100387.47
2019-03-19T02:34:38.127Z,100390.13
2019-03-19T02:37:04.570Z,100385.19
2019-03-19T02:39:30.864Z,100389.94
2019-03-19T02:41:57.220Z,100394.12
2019-03-19T02:44:23.543Z,100401.58
2019-03-19T02:46:50.286Z,100399.44
2019-03-19T02:49:16.647Z,100399.55
2019-03-19T02:51:42.998Z,100404.17
2019-03-19T02:54:09.570Z,100408.39
2019-03-19T02:56:35.972Z,100415.35
2019-03-19T02:59:02.654Z,100414.71
2019-03-19T03:01:29.326Z,100422.36
2019-03-19T03:03:55.713Z,100429.48
2019-03-19T03:06:22.047Z,100428.05
2019-03-19T03:08:48.424Z,100432.16
2019-03-19T03:11:14.760Z,100428.97
2019-03-19T03:13:41.107Z,100435.06
2019-03-19T03:16:07.438Z,100440.42
2019-03-19T03:18:34.123Z,100439.80
2019-03-19T03:21:00.533Z,100442.40
2019-03-19T03:23:27.173Z,100437.80
2019-03-19T03:25:53.541Z,100438.36
2019-03-19T03:28:19.894Z,100440.45
2019-03-19T03:30:46.265Z,100445.14
2019-03-19T03:33:12.601Z,100442.09
2019-03-19T03:35:40.887Z,100453.52
2019-03-19T03:38:07.539Z,100450.64
2019-03-19T03:40:34.308Z,100446.63
2019-03-19T03:43:00.659Z,100446.88
2019-03-19T03:45:27.234Z,100449.69
2019-03-19T03:47:53.649Z,100460.42
2019-03-19T03:50:20.060Z,100457.47
2019-03-19T03:52:46.409Z,100459.80
2019-03-19T03:55:19.272Z,100456.18
2019-03-19T03:57:45.851Z,100462.80
2019-03-19T04:00:18.094Z,100462.20
2019-03-19T04:02:44.884Z,100465.59
2019-03-19T04:05:11.972Z,100470.05
2019-03-19T04:07:38.364Z,100467.39
2019-03-19T04:10:10.788Z,100466.97
2019-03-19T04:12:37.120Z,100475.47
2019-03-19T04:15:07.591Z,100477.94
2019-03-19T04:17:33.951Z,100475.58
2019-03-19T04:20:00.509Z,100480.00
2019-03-19T04:22:27.305Z,100488.19
2019-03-19T04:24:53.745Z,100481.17
2019-03-19T04:27:20.177Z,100488.05
2019-03-19T04:29:46.795Z,100481.95
2019-03-19T04:32:13.522Z,100487.52
2019-03-19T04:34:39.955Z,100494.23
2019-03-19T04:37:06.418Z,100499.09
2019-03-19T04:39:32.737Z,100503.44
2019-03-19T04:41:59.073Z,100500.22
2019-03-19T04:44:25.434Z,100508.02
2019-03-19T04:46:51.877Z,100517.92
2019-03-19T04:49:18.230Z,100516.84
2019-03-19T04:51:44.571Z,100516.92
2019-03-19T04:54:11.250Z,100522.47
2019-03-19T04:56:37.597Z,100517.41
2019-03-19T04:59:03.941Z,100518.80
2019-03-19T05:01:30.301Z,100521.05
2019-03-19T05:03:56.647Z,100527.14
2019-03-19T05:06:23.300Z,100523.09
2019-03-19T05:08:50.420Z,100524.02
2019-03-19T05:11:18.219Z,100531.23
2019-03-19T05:13:44.552Z,100530.72
2019-03-19T05:16:10.868Z,100536.89
2019-03-19T05:18:37.488Z,100533.86
2019-03-19T05:21:04.837Z,100538.64
2019-03-19T05:23:31.529Z,100545.36
2019-03-19T05:25:58.283Z,100539.77
2019-03-19T05:28:25.358Z,100545.17
2019-03-19T05:30:51.714Z,100554.70
2019-03-19T05:33:19.606Z,100553.40
2019-03-19T05:35:50.842Z,100558.04
2019-03-19T05:38:17.923Z,100553.31
2019-03-19T05:40:44.542Z,100549.47
2019-03-19T05:43:10.981Z,100550.94
2019-03-19T05:45:37.333Z,100558.72
2019-03-19T05:48:03.748Z,100557.47
2019-03-19T05:50:30.101Z,100560.35
2019-03-19T05:52:56.476Z,100571.67
2019-03-19T05:55:23.136Z,100572.69
2019-03-19T05:57:50.607Z,100574.47
2019-03-19T06:00:28.743Z,100579.18
2019-03-19T06:02:55.469Z,100585.48
2019-03-19T06:05:22.082Z,100588.46
2019-03-19T06:07:49.415Z,100588.33
2019-03-19T06:10:15.760Z,100590.82
2019-03-19T06:12:42.128Z,100590.41
2019-03-19T06:15:14.170Z,100593.08
2019-03-19T06:17:40.491Z,100593.69
2019-03-19T06:20:18.927Z,100594.89
2019-03-19T06:22:45.260Z,100594.09
2019-03-19T06:25:12.449Z,100602.53
2019-03-19T06:27:38.769Z,100605.98
2019-03-19T06:30:15.217Z,100602.83
2019-03-19T06:32:41.867Z,100616.22
2019-03-19T06:35:10.753Z,100614.81
2019-03-19T06:37:37.193Z,100617.61
2019-03-19T06:40:13.265Z,100613.23
2019-03-19T06:42:39.966Z,100612.07
2019-03-19T06:45:10.323Z,100617.27
2019-03-19T06:47:36.668Z,100627.21
2019-03-19T06:50:10.526Z,100624.90
2019-03-19T06:52:36.841Z,100624.46
2019-03-19T06:55:07.755Z,100629.53
2019-03-19T06:57:39.211Z,100638.91
2019-03-19T07:00:13.885Z,100636.84
2019-03-19T07:02:40.336Z,100648.20
2019-03-19T07:05:08.313Z,100644.08
2019-03-19T07:07:34.623Z,100647.91
2019-03-19T07:10:01.028Z,100649.30
2019-03-19T07:12:27.697Z,100651.11
2019-03-19T07:14:54.010Z,100654.95
2019-03-19T07:17:20.489Z,100659.56
2019-03-19T07:19:46.907Z,100652.82
2019-03-19T07:22:13.732Z,100653.63
2019-03-19T07:24:40.048Z,100655.81
2019-03-19T07:27:06.411Z,100659.81
2019-03-19T07:29:33.019Z,100663.35
2019-03-19T07:31:59.359Z,100667.63
2019-03-19T07:34:25.687Z,100668.59
2019-03-19T07:36:52.034Z,100676.27
2019-03-19T07:39:18.663Z,100672.36
2019-03-19T07:41:45.509Z,100689.36
2019-03-19T07:44:12.149Z,100681.14
2019-03-19T07:46:38.511Z,100674.81
2019-03-19T07:49:04.823Z,100686.97
2019-03-19T07:51:31.231Z,100676.38
2019-03-19T07:53:57.561Z,100687.63
2019-03-19T07:56:23.895Z,100682.53
2019-03-19T07:58:50.272Z,100688.27
2019-03-19T08:01:16.589Z,100696.29
2019-03-19T08:03:42.956Z,100692.08
2019-03-19T08:06:09.670Z,100695.44
2019-03-19T08:08:36.989Z,100698.48
2019-03-19T08:11:06.920Z,100703.30
2019-03-19T08:13:33.443Z,100698.95
2019-03-19T08:16:00.312Z,100709.91
2019-03-19T08:18:27.018Z,100702.13
2019-03-19T08:20:54.919Z,100709.19
2019-03-19T08:23:22.486Z,100716.48
2019-03-19T08:25:49.478Z,100712.97
2019-03-19T08:28:16.132Z,100723.03
2019-03-19T08:30:42.900Z,100733.92
2019-03-19T08:33:09.240Z,100738.12
2019-03-19T08:35:38.517Z,100749.26
2019-03-19T08:38:06.167Z,100763.66
2019-03-19T08:40:32.809Z,100766.46
2019-03-19T08:42:59.213Z,100753.48
2019-03-19T08:45:27.544Z,100765.86
2019-03-19T08:47:54.405Z,100762.56
2019-03-19T08:50:22.961Z,100764.42
2019-03-19T08:52:49.586Z,100764.88
2019-03-19T08:55:15.940Z,100763.23
2019-03-19T08:57:42.857Z,100766.39
2019-03-19T09:00:24.307Z,100774.83
2019-03-19T09:02:52.559Z,100770.30
2019-03-19T09:05:19.177Z,100780.25
2019-03-19T09:07:45.523Z,100784.58
2019-03-19T09:10:16.927Z,100783.96
2019-03-19T09:12:43.516Z,100788.95
2019-03-19T09:15:27.845Z,100785.89
2019-03-19T09:17:54.592Z,100783.66
2019-03-19T09:20:21.132Z,100796.19
2019-03-19T09:22:47.461Z,100787.88
2019-03-19T09:25:15.905Z,100788.33
2019-03-19T09:27:42.397Z,100787.06
2019-03-19T09:30:23.996Z,100791.42
2019-03-19T09:32:50.437Z,100786.70
2019-03-19T09:35:17.018Z,100789.62
2019-03-19T09:37:46.312Z,100776.98
2019-03-19T09:40:17.187Z,100789.27
2019-03-19T09:42:43.483Z,100800.53
2019-03-19T09:45:11.971Z,100796.55
2019-03-19T09:47:38.614Z,100791.80
2019-03-19T09:50:15.495Z,100792.55
2019-03-19T09:52:42.844Z,100785.27
2019-03-19T09:55:11.057Z,100786.03
2019-03-19T09:57:39.768Z,100797.86
2019-03-19T10:00:16.859Z,100802.40
2019-03-19T10:02:43.527Z,100795.46
2019-03-19T10:05:10.413Z,100792.42
2019-03-19T10:07:41.479Z,100793.87
2019-03-19T10:10:15.435Z,100792.36
2019-03-19T10:12:44.921Z,100786.67
2019-03-19T10:15:12.204Z,100785.90
2019-03-19T10:17:38.487Z,100793.61
2019-03-19T10:20:23.780Z,100783.50
2019-03-19T10:22:54.002Z,100787.36
2019-03-19T10:25:20.548Z,100794.41
2019-03-19T10:27:47.174Z,100789.27
2019-03-19T10:30:21.189Z,100788.63
2019-03-19T10:32:47.947Z,100805.56
2019-03-19T10:35:15.107Z,100809.40
2019-03-19T10:37:42.313Z,100799.41
2019-03-19T10:40:17.700Z,100811.16
2019-03-19T10:42:46.369Z,100809.61
2019-03-19T10:45:25.994Z,100814.56
2019-03-19T10:47:52.595Z,100818.29
2019-03-19T10:50:23.709Z,100822.54
2019-03-19T10:52:50.942Z,100811.20
2019-03-19T10:55:17.598Z,100807.86
2019-03-19T10:57:44.532Z,100806.53
2019-03-19T11:00:24.379Z,100805.89
2019-03-19T11:02:50.821Z,100796.74
2019-03-19T11:05:18.541Z,100808.81
2019-03-19T11:07:45.287Z,100807.40
2019-03-19T11:10:16.118Z,100810.73
2019-03-19T11:12:42.651Z,100806.81
2019-03-19T11:15:23.811Z,100809.12
2019-03-19T11:17:50.245Z,100809.82
2019-03-19T11:20:18.732Z,100792.50
2019-03-19T11:22:45.689Z,100793.63
2019-03-19T11:25:16.741Z,100800.31
2019-03-19T11:27:43.463Z,100791.21
2019-03-19T11:30:17.298Z,100796.56
2019-03-19T11:32:46.304Z,100790.73
2019-03-19T11:35:13.246Z,100794.41
2019-03-19T11:37:41.051Z,100786.80
2019-03-19T11:40:15.555Z,100785.78
2019-03-19T11:42:42.265Z,100787.69
2019-03-19T11:45:13.623Z,100815.44
2019-03-19T11:47:40.227Z,100799.55
2019-03-19T11:50:28.012Z,100794.59
2019-03-19T11:52:54.391Z,100790.56
2019-03-19T11:55:21.304Z,100790.98
2019-03-19T11:57:48.235Z,100799.55
2019-03-19T12:00:28.289Z,100802.22
2019-03-19T12:02:54.921Z,100790.81
2019-03-19T12:05:21.334Z,100793.23
2019-03-19T12:07:47.677Z,100814.30
2019-03-19T12:10:14.463Z,100795.77
2019-03-19T12:12:40.843Z,100798.04
2019-03-19T12:15:09.101Z,100818.89
2019-03-19T12:17:35.425Z,100808.48
2019-03-19T12:20:05.296Z,100820.81
2019-03-19T12:22:31.640Z,100805.09
2019-03-19T12:25:00.378Z,100801.23
2019-03-19T12:27:27.152Z,100801.70
2019-03-19T12:29:53.487Z,100809.91
2019-03-19T12:32:19.858Z,100807.13
2019-03-19T12:34:46.232Z,100816.09
2019-03-19T12:37:12.684Z,100813.34
2019-03-19T12:39:39.447Z,100816.73
2019-03-19T12:42:05.821Z,100813.08
2019-03-19T12:44:32.121Z,100806.67
2019-03-19T12:46:58.464Z,100811.28
2019-03-19T12:49:25.963Z,100811.58
2019-03-19T12:51:54.270Z,100815.29
2019-03-19T12:54:20.888Z,100818.52
2019-03-19T12:56:47.587Z,100821.21
2019-03-19T12:59:20.256Z,100819.63
2019-03-19T13:01:42.400Z,100814.84
2019-03-19T13:04:09.070Z,100826.53
2019-03-19T13:06:35.806Z,100824.44
2019-03-19T13:09:05.372Z,100825.89
2019-03-19T13:11:32.184Z,100827.83
2019-03-19T13:13:58.612Z,100832.02
2019-03-19T13:16:25.239Z,100815.48
2019-03-19T13:18:51.888Z,100821.21
2019-03-19T13:21:18.243Z,100815.64
2019-03-19T13:23:44.850Z,100827.98
2019-03-19T13:26:12.237Z,100828.34
2019-03-19T13:28:38.852Z,100828.01
2019-03-19T13:31:05.488Z,100837.75
2019-03-19T13:33:32.117Z,100835.23
2019-03-19T13:35:58.534Z,100827.45
2019-03-19T13:38:25.281Z,100830.70
2019-03-19T13:40:51.677Z,100831.17
2019-03-19T13:43:18.105Z,100836.19
2019-03-19T13:45:44.809Z,100829.20
2019-03-19T13:48:11.173Z,100828.86
2019-03-19T13:50:37.560Z,100834.11
2019-03-19T13:53:04.206Z,100833.80
2019-03-19T13:55:30.562Z,100831.27
2019-03-19T13:57:57.276Z,100831.76
2019-03-19T14:00:23.628Z,100835.97
2019-03-19T14:02:49.992Z,100837.58
2019-03-19T14:05:16.619Z,100841.34
2019-03-19T14:07:42.974Z,100841.47
2019-03-19T14:10:17.539Z,100843.20
2019-03-19T14:12:44.391Z,100839.67
2019-03-19T14:15:26.141Z,100844.32
2019-03-19T14:17:52.809Z,100846.66
2019-03-19T14:20:20.030Z,100842.62
2019-03-19T14:22:46.441Z,100839.91
2019-03-19T14:25:14.879Z,100853.67
2019-03-19T14:27:42.148Z,100845.09
2019-03-19T14:30:21.055Z,100848.02
2019-03-19T14:32:47.702Z,100856.29
2019-03-19T14:35:15.175Z,100846.08
2019-03-19T14:37:42.193Z,100855.10
2019-03-19T14:40:19.651Z,100858.39
2019-03-19T14:42:48.120Z,100859.69
2019-03-19T14:45:17.074Z,100854.55
2019-03-19T14:47:45.094Z,100861.91
2019-03-19T14:50:20.515Z,100863.62
2019-03-19T14:52:47.321Z,100867.67
2019-03-19T14:55:13.944Z,100865.20
2019-03-19T14:57:40.727Z,100868.77
2019-03-19T15:00:20.202Z,100873.75
2019-03-19T15:02:46.920Z,100863.14
2019-03-19T15:05:14.637Z,100865.22
2019-03-19T15:07:44.144Z,100876.55
2019-03-19T15:10:14.069Z,100878.05
2019-03-19T15:12:43.428Z,100883.95
2019-03-19T15:15:15.906Z,100875.83
2019-03-19T15:17:49.164Z,100877.37
2019-03-19T15:20:24.524Z,100893.44
2019-03-19T15:22:51.056Z,100881.25
2019-03-19T15:25:18.831Z,100885.95
2019-03-19T15:27:45.196Z,100887.65
2019-03-19T15:30:17.300Z,100886.21
2019-03-19T15:32:48.051Z,100887.08
2019-03-19T15:35:15.025Z,100890.19
2019-03-19T15:37:41.701Z,100899.42
2019-03-19T15:40:18.677Z,100892.30
2019-03-19T15:42:45.442Z,100893.73
2019-03-19T15:45:28.815Z,100895.85
2019-03-19T15:47:55.192Z,100907.34
2019-03-19T15:50:21.957Z,100898.95
2019-03-19T15:52:51.215Z,100899.41
2019-03-19T15:55:32.687Z,100912.11
2019-03-19T15:58:02.663Z,100906.78
2019-03-19T16:00:29.029Z,100912.78
2019-03-19T16:02:58.637Z,100911.96
2019-03-19T16:05:25.105Z,100917.94
2019-03-19T16:07:52.633Z,100907.72
2019-03-19T16:10:19.415Z,100914.12
2019-03-19T16:12:46.263Z,100909.51
2019-03-19T16:15:18.478Z,100921.27
2019-03-19T16:17:45.824Z,100921.78
2019-03-19T16:20:23.925Z,100930.61
2019-03-19T16:22:50.455Z,100933.51
2019-03-19T16:25:17.205Z,100931.75
2019-03-19T16:27:43.865Z,100938.01
2019-03-19T16:30:18.943Z,100937.99
2019-03-19T16:32:45.546Z,100937.84
2019-03-19T16:35:12.929Z,100943.58
2019-03-19T16:37:39.465Z,100946.56
2019-03-19T16:40:20.092Z,100947.34
2019-03-19T16:42:46.675Z,100953.11
2019-03-19T16:45:13.611Z,100965.71
2019-03-19T16:47:40.271Z,100961.98
2019-03-19T16:50:17.029Z,100962.97
2019-03-19T16:52:51.498Z,100971.66
2019-03-19T16:55:20.085Z,100980.81
2019-03-19T16:57:46.390Z,100977.41
2019-03-19T17:00:22.311Z,100984.75
2019-03-19T17:02:49.334Z,100983.77
2019-03-19T17:05:16.761Z,100984.70
2019-03-19T17:07:43.584Z,100992.95
2019-03-19T17:10:15.791Z,100995.00
2019-03-19T17:12:44.763Z,100992.63
2019-03-19T17:15:14.158Z,100995.95
2019-03-19T17:17:42.505Z,100991.86
2019-03-19T17:20:13.282Z,100999.34
2019-03-19T17:22:40.338Z,101001.62
2019-03-19T17:25:15.338Z,101003.90
2019-03-19T17:27:41.763Z,101003.95
2019-03-19T17:30:24.525Z,101008.50
2019-03-19T17:32:51.002Z,101012.38
2019-03-19T17:35:18.755Z,101015.17
2019-03-19T17:37:46.327Z,101016.17
2019-03-19T17:40:14.231Z,101021.99
2019-03-19T17:42:40.976Z,101024.39
2019-03-19T17:45:10.849Z,101032.58
2019-03-19T17:47:37.772Z,101032.84
2019-03-19T17:50:36.414Z,101029.84
2019-03-19T17:53:03.056Z,101039.77
2019-03-19T17:55:29.766Z,101042.50
2019-03-19T17:57:56.429Z,101040.17
2019-03-19T18:00:25.017Z,101043.30
2019-03-19T18:02:51.647Z,101052.82
2019-03-19T18:05:18.047Z,101053.88
2019-03-19T18:07:44.422Z,101057.80
2019-03-19T18:10:12.456Z,101060.44
2019-03-19T18:12:39.321Z,101060.61
2019-03-19T18:15:13.525Z,101061.93
2019-03-19T18:17:39.893Z,101061.41
2019-03-19T18:20:16.161Z,101061.28
2019-03-19T18:22:43.012Z,101064.98
2019-03-19T18:25:17.282Z,101065.13
2019-03-19T18:27:43.636Z,101067.00
2019-03-19T18:30:19.341Z,101073.63
2019-03-19T18:32:45.727Z,101079.98
2019-03-19T18:35:12.185Z,101077.71
2019-03-19T18:37:38.883Z,101081.03
2019-03-19T18:40:12.660Z,101081.03
2019-03-19T18:42:39.005Z,101077.91
2019-03-19T18:45:20.709Z,101085.64
2019-03-19T18:47:47.055Z,101090.75
2019-03-19T18:50:20.741Z,101090.27
2019-03-19T18:52:47.488Z,101093.81
2019-03-19T18:55:14.148Z,101096.67
2019-03-19T18:57:41.710Z,101099.67
2019-03-19T19:00:20.021Z,101102.39
2019-03-19T19:02:50.357Z,101097.38
2019-03-19T19:05:16.776Z,101098.79
2019-03-19T19:07:43.740Z,101093.42
2019-03-19T19:10:13.535Z,101112.92
2019-03-19T19:12:41.508Z,101109.61
2019-03-19T19:15:21.966Z,101109.45
2019-03-19T19:17:48.800Z,101110.91
2019-03-19T19:20:16.163Z,101114.67
2019-03-19T19:22:43.111Z,101105.31
2019-03-19T19:25:14.913Z,101112.27
2019-03-19T19:27:41.618Z,101125.30
2019-03-19T19:30:29.469Z,101128.51
2019-03-19T19:33:01.672Z,101126.66
2019-03-19T19:35:24.051Z,101130.06
2019-03-19T19:37:50.442Z,101127.36
2019-03-19T19:40:17.169Z,101131.22
2019-03-19T19:42:43.887Z,101137.31
2019-03-19T19:45:12.997Z,101138.92
2019-03-19T19:47:39.593Z,101142.33
2019-03-19T19:50:12.789Z,101147.55
2019-03-19T19:52:39.300Z,101136.40
2019-03-19T19:55:09.113Z,101144.43
2019-03-19T19:57:36.088Z,101147.69
2019-03-19T20:00:07.972Z,101141.94
2019-03-19T20:02:34.322Z,101142.22
2019-03-19T20:05:03.157Z,101145.80
2019-03-19T20:07:31.068Z,101148.59
2019-03-19T20:09:57.938Z,101152.37
2019-03-19T20:12:24.258Z,101152.03
2019-03-19T20:14:50.886Z,101154.27
2019-03-19T20:17:17.660Z,101159.80
2019-03-19T20:19:44.476Z,101158.55
2019-03-19T20:22:10.917Z,101168.07
2019-03-19T20:24:37.234Z,101160.20
2019-03-19T20:27:03.602Z,101160.05
2019-03-19T20:29:31.019Z,101158.95
2019-03-19T20:31:57.779Z,101159.05
2019-03-19T20:34:24.458Z,101163.56
2019-03-19T20:36:51.315Z,101160.05
2019-03-19T20:39:17.739Z,101162.80
2019-03-19T20:41:44.712Z,101165.80
2019-03-19T20:44:11.651Z,101161.75
2019-03-19T20:46:38.060Z,101166.20
2019-03-19T20:49:04.500Z,101165.50
2019-03-19T20:51:30.965Z,101175.59
2019-03-19T20:53:57.332Z,101177.20
2019-03-19T20:56:23.644Z,101180.92
2019-03-19T20:58:51.842Z,101183.02
2019-03-19T21:01:18.509Z,101186.13
2019-03-19T21:03:44.954Z,101184.73
2019-03-19T21:06:11.681Z,101189.59
2019-03-19T21:08:38.071Z,101188.55
2019-03-19T21:11:07.826Z,101197.55
2019-03-19T21:13:34.229Z,101194.10
2019-03-19T21:16:00.905Z,101197.51
2019-03-19T21:18:27.522Z,101201.38
2019-03-19T21:20:53.929Z,101206.89
2019-03-19T21:23:20.290Z,101207.39
2019-03-19T21:25:46.933Z,101213.31
2019-03-19T21:28:14.734Z,101211.00
2019-03-19T21:30:41.640Z,101209.45
2019-03-19T21:33:08.130Z,101207.80
2019-03-19T21:35:34.817Z,101217.94
2019-03-19T21:38:04.543Z,101217.22
2019-03-19T21:40:30.881Z,101216.20
2019-03-19T21:42:57.700Z,101216.38
2019-03-19T21:45:24.385Z,101219.60
2019-03-19T21:47:51.024Z,101223.75
2019-03-19T21:50:23.616Z,101221.83
2019-03-19T21:52:50.606Z,101219.36
2019-03-19T21:55:17.314Z,101226.33
2019-03-19T21:57:43.990Z,101229.95
2019-03-19T22:00:14.144Z,101230.56
2019-03-19T22:02:40.943Z,101235.27
2019-03-19T22:05:07.630Z,101232.27
2019-03-19T22:07:34.320Z,101235.19
2019-03-19T22:10:00.668Z,101233.70
2019-03-19T22:12:26.998Z,101238.69
2019-03-19T22:14:54.468Z,101248.44
2019-03-19T22:17:21.074Z,101238.19
2019-03-19T22:19:47.714Z,101242.16
2019-03-19T22:22:14.351Z,101242.00
2019-03-19T22:24:41.096Z,101242.93
2019-03-19T22:27:07.549Z,101245.67
2019-03-19T22:29:34.168Z,101250.04
2019-03-19T22:32:00.830Z,101245.91
2019-03-19T22:34:27.168Z,101244.48
2019-03-19T22:36:53.899Z,101246.36
2019-03-19T22:39:20.530Z,101245.73
2019-03-19T22:41:46.869Z,101248.44
2019-03-19T22:44:13.646Z,101250.80
2019-03-19T22:46:39.982Z,101247.36
2019-03-19T22:49:06.320Z,101250.81
2019-03-19T22:51:32.997Z,101251.58
2019-03-19T22:53:59.662Z,101253.24
2019-03-19T22:56:26.028Z,101245.52
2019-03-19T22:58:52.344Z,101252.61
2019-03-19T23:01:18.880Z,101245.20
2019-03-19T23:03:45.291Z,101262.34
2019-03-19T23:06:11.866Z,101264.02
2019-03-19T23:08:38.639Z,101256.46
2019-03-19T23:11:05.211Z,101256.56
2019-03-19T23:13:31.912Z,101261.99
2019-03-19T23:15:58.558Z,101260.61
2019-03-19T23:18:24.894Z,101262.81
2019-03-19T23:20:51.648Z,101264.52
2019-03-19T23:23:18.268Z,101274.71
2019-03-19T23:25:44.591Z,101284.45
2019-03-19T23:28:11.339Z,101277.19
2019-03-19T23:30:37.960Z,101276.70
2019-03-19T23:33:04.617Z,101279.73
2019-03-19T23:35:30.968Z,101277.27
2019-03-19T23:37:57.300Z,101276.27
2019-03-19T23:40:23.913Z,101283.48
2019-03-19T23:42:50.282Z,101285.70
2019-03-19T23:45:17.093Z,101281.66
2019-03-19T23:47:43.522Z,101284.90
2019-03-19T23:50:15.966Z,101280.63
2019-03-19T23:52:42.499Z,101284.98
2019-03-19T23:55:09.593Z,101286.88
2019-03-19T23:57:36.225Z,101288.30
